Time;durP1;ratioP1;P1;durP2;ratioP2;P2;SDS_P1;SDS_P2;PMS_P1;PMS_P2;Temp;Humidity;BMP_temperature;BMP_pressure;BME280_temperature;BME280_humidity;BME280_pressure;Samples;Min_cycle;Max_cycle;Signal;HPM_P1;HPM_P2
2023/04/20 00:01:17;;;;;;;28.02;16.55;;;;;;;5.27;88.19;101746.91;5026376;28;20071;-50
2023/04/20 00:03:43;;;;;;;24.77;15.88;;;;;;;5.18;87.35;101743.47;5031380;28;20029;-48
2023/04/20 00:06:08;;;;;;;27.85;16.42;;;;;;;5.15;87.62;101747.88;5029575;28;20061;-48
2023/04/20 00:08:34;;;;;;;35.38;17.88;;;;;;;5.18;88.06;101746.97;5027768;28;20029;-50
2023/04/20 00:10:59;;;;;;;28.88;17.35;;;;;;;5.21;88.29;101752.19;5027005;28;20029;-49
2023/04/20 00:13:25;;;;;;;26.98;15.88;;;;;;;5.21;87.18;101741.69;5024358;28;20022;-49
2023/04/20 00:15:50;;;;;;;33.60;16.75;;;;;;;5.18;87.01;101740.84;5026024;28;20038;-50
2023/04/20 00:18:16;;;;;;;27.48;15.23;;;;;;;5.21;87.08;101741.69;5024790;28;20063;-50
2023/04/20 00:20:41;;;;;;;28.88;16.17;;;;;;;5.25;87.90;101746.06;5024422;28;20188;-49
2023/04/20 00:23:07;;;;;;;27.88;17.05;;;;;;;5.23;87.69;101739.06;5035705;28;20034;-50
2023/04/20 00:25:32;;;;;;;24.73;16.70;;;;;;;5.23;87.88;101739.97;5024011;28;20382;-50
2023/04/20 00:27:58;;;;;;;26.73;17.77;;;;;;;5.25;88.02;101747.81;5028222;28;20105;-51
2023/04/20 00:30:23;;;;;;;26.30;16.67;;;;;;;5.29;87.92;101739.03;5034736;28;20164;-50
2023/04/20 00:32:49;;;;;;;28.45;18.40;;;;;;;5.33;88.31;101741.63;5032299;28;20044;-50
2023/04/20 00:35:14;;;;;;;27.45;15.57;;;;;;;5.32;87.67;101736.38;5029954;28;20040;-50
2023/04/20 00:37:40;;;;;;;25.70;15.35;;;;;;;5.35;87.82;101732.88;5043777;28;20081;-50
2023/04/20 00:40:08;;;;;;;28.30;16.33;;;;;;;5.35;87.88;101733.75;5025963;28;20029;-50
2023/04/20 00:42:33;;;;;;;28.52;17.20;;;;;;;5.38;87.93;101743.31;5028259;28;20404;-48
2023/04/20 00:44:59;;;;;;;22.65;15.43;;;;;;;5.39;88.13;101734.59;5025364;28;20033;-50
2023/04/20 00:47:24;;;;;;;23.88;15.93;;;;;;;5.40;87.27;101741.56;5024218;28;20120;-50
2023/04/20 00:49:51;;;;;;;25.65;15.60;;;;;;;5.38;87.01;101740.69;5027645;28;20096;-49
2023/04/20 00:52:16;;;;;;;24.13;15.30;;;;;;;5.41;87.13;101738.06;5026544;28;20056;-50
2023/04/20 00:54:41;;;;;;;26.83;16.83;;;;;;;5.41;87.26;101732.81;5028083;28;20060;-50
2023/04/20 00:57:07;;;;;;;26.88;15.05;;;;;;;5.33;87.06;101741.63;5028292;28;20088;-50
2023/04/20 00:59:32;;;;;;;25.13;15.73;;;;;;;5.27;87.40;101725.94;5032669;28;20017;-50
2023/04/20 01:01:58;;;;;;;25.20;16.13;;;;;;;5.21;87.36;101723.34;5037135;28;20041;-50
2023/04/20 01:04:23;;;;;;;32.67;17.45;;;;;;;5.21;87.45;101725.97;5027486;28;20060;-50
2023/04/20 01:06:48;;;;;;;26.60;16.70;;;;;;;5.25;87.26;101727.72;5026219;28;20555;-49
2023/04/20 01:09:14;;;;;;;28.40;17.75;;;;;;;5.23;87.89;101719.00;5022897;28;20025;-49
2023/04/20 01:11:40;;;;;;;27.48;17.55;;;;;;;5.20;87.94;101724.25;5026260;28;20029;-50
2023/04/20 01:14:05;;;;;;;25.25;15.40;;;;;;;5.16;87.35;101719.91;5025553;28;20400;-49
2023/04/20 01:16:31;;;;;;;27.08;16.70;;;;;;;5.11;87.53;101713.81;5026266;28;20140;-48
2023/04/20 01:18:56;;;;;;;26.98;16.98;;;;;;;4.96;87.53;101715.69;5028599;28;20645;-50
2023/04/20 01:21:23;;;;;;;28.95;18.17;;;;;;;4.81;88.43;101715.78;5026905;28;20026;-48
2023/04/20 01:23:49;;;;;;;24.50;15.65;;;;;;;4.76;89.01;101722.81;5028387;28;20065;-48
2023/04/20 01:26:16;;;;;;;31.88;18.23;;;;;;;4.78;89.54;101723.66;5028343;28;20742;-50
2023/04/20 01:28:43;;;;;;;28.05;18.45;;;;;;;4.87;89.91;101722.72;5027979;28;20089;-49
2023/04/20 01:31:09;;;;;;;26.98;17.10;;;;;;;4.91;89.41;101721.84;5026808;28;20040;-49
2023/04/20 01:33:35;;;;;;;27.27;17.92;;;;;;;4.90;89.25;101714.84;5023934;28;20477;-48
2023/04/20 01:36:01;;;;;;;24.73;17.27;;;;;;;4.90;88.87;101723.56;5023836;28;21869;-49
2023/04/20 01:38:27;;;;;;;31.63;17.33;;;;;;;4.96;88.77;101720.91;5027338;28;20049;-49
2023/04/20 01:40:53;;;;;;;23.58;15.98;;;;;;;5.01;89.00;101722.66;5026978;28;20117;-48
2023/04/20 01:43:19;;;;;;;27.42;16.80;;;;;;;5.03;88.63;101731.38;5024904;28;20028;-50
2023/04/20 01:45:45;;;;;;;29.30;17.00;;;;;;;5.02;88.60;101724.38;5026287;28;20370;-48
2023/04/20 01:48:10;;;;;;;24.38;14.85;;;;;;;5.07;88.88;101718.22;5025537;28;20033;-48
2023/04/20 01:50:36;;;;;;;24.75;15.77;;;;;;;5.06;88.52;101715.63;5028261;28;20025;-48
2023/04/20 01:53:01;;;;;;;24.88;16.58;;;;;;;4.94;88.27;101712.19;5028214;28;20057;-49
2023/04/20 01:55:26;;;;;;;23.88;16.52;;;;;;;4.83;88.81;101713.16;5023586;28;20572;-49
2023/04/20 01:57:52;;;;;;;28.25;15.85;;;;;;;4.83;89.03;101721.88;5024551;28;20030;-50
2023/04/20 02:00:17;;;;;;;27.25;16.20;;;;;;;4.86;89.30;101724.47;5024456;28;20030;-50
2023/04/20 02:02:43;;;;;;;26.90;15.70;;;;;;;4.90;89.48;101728.81;5024706;28;20398;-48
2023/04/20 02:05:09;;;;;;;27.85;17.17;;;;;;;4.99;89.46;101730.53;5024881;28;20061;-48
2023/04/20 02:07:34;;;;;;;30.90;16.83;;;;;;;5.02;89.24;101716.50;5024637;28;20112;-49
2023/04/20 02:09:59;;;;;;;24.10;15.80;;;;;;;5.04;88.94;101717.38;5025867;28;20021;-49
2023/04/20 02:12:25;;;;;;;24.95;17.17;;;;;;;5.02;89.13;101713.88;5025877;28;20042;-48
2023/04/20 02:14:50;;;;;;;26.55;14.73;;;;;;;5.00;88.20;101710.41;5024418;28;20121;-49
2023/04/20 02:17:16;;;;;;;27.77;16.40;;;;;;;4.97;88.51;101714.81;5037961;28;20033;-48
2023/04/20 02:19:42;;;;;;;22.98;16.38;;;;;;;4.93;88.23;101720.94;5026264;28;20354;-48
2023/04/20 02:22:07;;;;;;;23.33;15.93;;;;;;;4.94;88.33;101717.44;5022123;28;20036;-48
2023/04/20 02:24:33;;;;;;;26.45;15.77;;;;;;;5.00;89.23;101728.75;5026765;28;20091;-49
2023/04/20 02:26:58;;;;;;;26.10;16.20;;;;;;;5.05;88.48;101725.25;5025411;28;20025;-48
2023/04/20 02:29:24;;;;;;;28.38;18.25;;;;;;;5.01;88.23;101725.28;5025682;28;20079;-49
2023/04/20 02:31:49;;;;;;;28.75;16.50;;;;;;;5.01;88.12;101730.50;5021474;28;20381;-48
2023/04/20 02:34:15;;;;;;;29.77;17.63;;;;;;;5.06;88.02;101726.09;5026240;28;20033;-48
2023/04/20 02:36:40;;;;;;;30.75;16.95;;;;;;;5.05;88.08;101726.97;5021508;28;20078;-49
2023/04/20 02:39:06;;;;;;;24.17;16.10;;;;;;;5.02;87.90;101724.38;5028643;28;20418;-48
2023/04/20 02:41:31;;;;;;;24.80;15.38;;;;;;;5.02;87.71;101714.78;5028978;28;20033;-50
2023/04/20 02:43:57;;;;;;;26.85;16.58;;;;;;;5.05;88.11;101724.34;5032153;28;20112;-50
2023/04/20 02:46:22;;;;;;;22.58;14.75;;;;;;;5.10;87.88;101733.03;5029429;28;20446;-50
2023/04/20 02:48:47;;;;;;;23.52;15.50;;;;;;;5.07;87.58;101722.63;5029268;28;20635;-50
2023/04/20 02:51:13;;;;;;;27.70;14.82;;;;;;;5.08;87.65;101719.09;5028637;28;20083;-50
2023/04/20 02:53:38;;;;;;;25.70;16.25;;;;;;;5.12;87.81;101726.06;5024952;28;20034;-51
2023/04/20 02:56:04;;;;;;;25.23;16.25;;;;;;;5.11;87.67;101719.06;5026855;28;20052;-50
2023/04/20 02:58:30;;;;;;;23.83;15.52;;;;;;;5.10;87.83;101712.06;5030285;28;20051;-50
2023/04/20 03:01:01;;;;;;;28.42;15.57;;;;;;;5.06;86.85;101726.09;5033248;28;20048;-50
2023/04/20 03:03:27;;;;;;;24.50;15.95;;;;;;;5.10;87.39;101722.56;5028824;28;20041;-50
2023/04/20 03:05:54;;;;;;;29.92;17.67;;;;;;;5.02;87.41;101724.38;5028211;28;20124;-50
2023/04/20 03:08:20;;;;;;;27.08;16.38;;;;;;;5.02;87.83;101724.38;5042715;28;20021;-50
2023/04/20 03:10:45;;;;;;;24.02;16.67;;;;;;;4.96;87.96;101723.53;5029611;28;20090;-50
2023/04/20 03:13:10;;;;;;;24.42;15.70;;;;;;;4.93;87.91;101726.16;5030320;28;20507;-49
2023/04/20 03:15:36;;;;;;;29.40;15.95;;;;;;;4.88;87.91;101725.34;5027673;28;20030;-49
2023/04/20 03:18:02;;;;;;;28.08;16.77;;;;;;;4.94;88.56;101727.06;5028027;28;20037;-49
2023/04/20 03:20:28;;;;;;;26.27;17.63;;;;;;;4.95;88.54;101721.81;5031943;28;20113;-51
2023/04/20 03:22:53;;;;;;;28.75;18.15;;;;;;;4.92;88.42;101729.69;5021942;28;20037;-48
2023/04/20 03:25:19;;;;;;;29.55;18.30;;;;;;;4.88;88.81;101725.34;5035631;28;20026;-49
2023/04/20 03:27:47;;;;;;;24.63;16.55;;;;;;;4.87;88.33;101726.25;5030026;28;20034;-49
2023/04/20 03:30:13;;;;;;;29.23;18.35;;;;;;;4.89;88.59;101734.94;5031950;28;20343;-48
2023/04/20 03:32:39;;;;;;;27.13;17.67;;;;;;;4.84;88.21;101731.50;5028880;28;20036;-50
2023/04/20 03:35:05;;;;;;;25.88;17.17;;;;;;;4.89;88.62;101728.84;5024093;28;20401;-50
2023/04/20 03:37:30;;;;;;;25.52;16.88;;;;;;;4.87;88.02;101734.09;5027704;28;20132;-49
2023/04/20 03:39:56;;;;;;;25.60;17.42;;;;;;;4.94;88.59;101738.41;5026009;28;20033;-50
2023/04/20 03:42:21;;;;;;;31.60;17.73;;;;;;;4.91;88.75;101748.03;5025806;28;20029;-50
2023/04/20 03:44:46;;;;;;;25.95;16.95;;;;;;;4.92;88.28;101739.28;5029714;28;20026;-50
2023/04/20 03:47:12;;;;;;;26.77;16.42;;;;;;;4.91;88.19;101740.19;5025411;28;20079;-50
2023/04/20 03:49:37;;;;;;;29.65;18.02;;;;;;;4.95;88.48;101748.03;5027347;28;20322;-51
2023/04/20 03:52:03;;;;;;;25.95;16.73;;;;;;;5.03;88.21;101752.31;5025757;28;20025;-48
2023/04/20 03:54:28;;;;;;;28.48;16.30;;;;;;;5.03;88.19;101757.56;5023480;28;20045;-50
2023/04/20 03:56:54;;;;;;;28.77;16.58;;;;;;;5.05;88.16;101740.97;5022123;28;23350;-51
2023/04/20 03:59:19;;;;;;;26.30;17.88;;;;;;;5.02;87.86;101745.34;5038383;28;20037;-49
2023/04/20 04:01:45;;;;;;;26.38;16.60;;;;;;;5.08;87.85;101747.91;5024053;28;20087;-50
2023/04/20 04:04:10;;;;;;;24.88;16.73;;;;;;;5.05;88.25;101750.56;5026341;28;20037;-50
2023/04/20 04:06:36;;;;;;;26.77;17.65;;;;;;;5.03;87.82;101744.47;5025062;28;20025;-51
2023/04/20 04:09:01;;;;;;;27.30;16.88;;;;;;;5.05;88.07;101751.44;5026306;28;20031;-50
2023/04/20 04:11:28;;;;;;;24.85;16.40;;;;;;;5.08;88.14;101755.78;5028611;28;20029;-50
2023/04/20 04:13:54;;;;;;;29.00;19.10;;;;;;;5.07;87.59;101748.81;5028769;28;20028;-50
2023/04/20 04:16:19;;;;;;;26.08;16.92;;;;;;;5.11;88.12;101747.91;5025653;28;20430;-51
2023/04/20 04:18:45;;;;;;;31.50;19.98;;;;;;;5.12;87.63;101758.38;5027610;28;20037;-50
2023/04/20 04:21:11;;;;;;;32.00;18.10;;;;;;;5.10;87.82;101759.25;5021849;28;20571;-50
2023/04/20 04:23:36;;;;;;;29.73;17.75;;;;;;;5.06;87.55;101747.94;5023866;28;20030;-50
2023/04/20 04:26:03;;;;;;;33.17;19.13;;;;;;;4.99;87.93;101761.09;5026246;28;20683;-50
2023/04/20 04:28:30;;;;;;;28.55;18.17;;;;;;;4.98;88.32;101765.44;5031092;28;20044;-50
2023/04/20 04:30:55;;;;;;;30.58;20.33;;;;;;;4.99;88.02;101756.72;5026376;28;20037;-50
2023/04/20 04:33:21;;;;;;;32.40;20.35;;;;;;;5.06;88.59;101762.78;5032548;28;20067;-49
2023/04/20 04:35:47;;;;;;;35.00;20.45;;;;;;;5.02;87.93;101772.44;5024773;28;20029;-49
2023/04/20 04:38:12;;;;;;;35.65;21.23;;;;;;;5.06;87.77;101773.28;5026655;28;20060;-49
2023/04/20 04:40:40;;;;;;;37.92;21.70;;;;;;;5.06;87.15;101773.28;5022409;28;20466;-50
2023/04/20 04:43:09;;;;;;;40.83;22.27;;;;;;;5.04;87.31;101765.41;5023155;28;20032;-50
2023/04/20 04:45:38;;;;;;;41.10;23.60;;;;;;;5.02;87.85;101771.53;5027342;28;20446;-50
2023/04/20 04:48:04;;;;;;;43.72;24.10;;;;;;;4.97;86.99;101775.06;5025226;28;20044;-50
2023/04/20 04:50:30;;;;;;;41.83;24.63;;;;;;;4.94;87.35;101767.22;5022888;28;20040;-49
2023/04/20 04:52:55;;;;;;;46.13;24.58;;;;;;;4.98;87.40;101770.69;5024606;28;20033;-50
2023/04/20 04:55:21;;;;;;;49.20;25.83;;;;;;;4.92;87.69;101782.09;5026893;28;20029;-51
2023/04/20 04:57:46;;;;;;;43.55;24.80;;;;;;;4.91;88.44;101782.09;5026352;28;20029;-50
2023/04/20 05:00:12;;;;;;;46.72;26.25;;;;;;;4.85;87.51;101775.13;5030898;28;20026;-50
2023/04/20 05:02:38;;;;;;;51.95;25.05;;;;;;;4.83;87.87;101776.91;5028556;28;20025;-50
2023/04/20 05:05:04;;;;;;;54.45;27.52;;;;;;;4.77;88.07;101798.78;5026950;28;20524;-48
2023/04/20 05:07:29;;;;;;;46.10;26.15;;;;;;;4.75;87.75;101794.41;5024433;28;20025;-48
2023/04/20 05:09:55;;;;;;;43.78;26.92;;;;;;;4.77;87.53;101787.41;5020462;28;20037;-48
2023/04/20 05:12:20;;;;;;;45.72;26.55;;;;;;;4.83;86.63;101795.22;5025581;28;20060;-50
2023/04/20 05:14:45;;;;;;;55.00;27.10;;;;;;;4.84;87.33;101778.66;5026686;28;20037;-50
2023/04/20 05:17:11;;;;;;;46.45;26.25;;;;;;;4.83;87.09;101781.28;5027611;28;20017;-50
2023/04/20 05:19:36;;;;;;;46.80;26.17;;;;;;;4.83;86.78;101778.66;5028001;28;20675;-50
2023/04/20 05:22:01;;;;;;;47.58;26.30;;;;;;;4.82;87.03;101780.38;5027834;28;20119;-48
2023/04/20 05:24:27;;;;;;;51.83;26.17;;;;;;;4.73;87.87;101791.78;5028137;28;20034;-50
2023/04/20 05:26:52;;;;;;;51.85;26.92;;;;;;;4.74;87.58;101804.03;5025387;28;20040;-50
2023/04/20 05:29:18;;;;;;;43.05;25.75;;;;;;;4.70;87.58;101794.41;5024429;28;20037;-51
2023/04/20 05:31:44;;;;;;;45.45;26.63;;;;;;;4.64;87.47;101798.81;5022050;28;20394;-50
2023/04/20 05:34:09;;;;;;;50.03;28.55;;;;;;;4.55;87.71;101803.22;5024062;28;20048;-50
2023/04/20 05:36:35;;;;;;;46.55;26.42;;;;;;;4.54;87.89;101806.69;5025467;28;20116;-51
2023/04/20 05:39:01;;;;;;;45.25;26.92;;;;;;;4.70;87.84;101804.03;5024406;28;20037;-50
2023/04/20 05:41:27;;;;;;;49.05;27.15;;;;;;;4.70;86.87;101802.28;5024581;28;20048;-50
2023/04/20 05:43:53;;;;;;;49.97;28.23;;;;;;;4.79;87.02;101809.25;5027988;28;20041;-50
2023/04/20 05:46:19;;;;;;;40.15;24.25;;;;;;;4.91;86.50;101805.69;5026429;28;20076;-50
2023/04/20 05:48:44;;;;;;;50.15;27.50;;;;;;;5.02;86.82;101813.47;5022375;28;20021;-50
2023/04/20 05:51:10;;;;;;;46.72;25.15;;;;;;;5.08;86.04;101813.44;5022471;28;20466;-50
2023/04/20 05:53:35;;;;;;;46.13;25.75;;;;;;;5.23;86.52;101815.09;5024592;28;20572;-50
2023/04/20 05:56:02;;;;;;;46.08;25.50;;;;;;;5.26;85.57;101805.47;5026847;28;20109;-50
2023/04/20 05:58:27;;;;;;;37.30;23.63;;;;;;;5.35;83.63;101801.91;5024547;28;20565;-51
2023/04/20 06:00:53;;;;;;;44.70;24.73;;;;;;;5.53;84.39;101811.41;5022260;28;20052;-50
2023/04/20 06:03:18;;;;;;;49.33;25.10;;;;;;;5.61;84.68;101809.59;5023714;28;20034;-50
2023/04/20 06:05:44;;;;;;;44.00;24.30;;;;;;;5.62;83.77;101816.56;5023703;28;20036;-49
2023/04/20 06:08:10;;;;;;;40.75;23.27;;;;;;;5.64;83.58;101829.66;5023091;28;20032;-49
2023/04/20 06:10:36;;;;;;;39.22;22.15;;;;;;;5.69;83.24;101823.50;5025860;28;20108;-50
2023/04/20 06:13:01;;;;;;;38.38;23.80;;;;;;;5.64;83.01;101822.69;5028854;28;20029;-50
2023/04/20 06:15:27;;;;;;;36.63;21.98;;;;;;;5.68;82.76;101824.38;5027363;28;20456;-50
2023/04/20 06:17:52;;;;;;;45.63;24.73;;;;;;;5.68;83.30;101837.50;5011596;28;20088;-50
2023/04/20 06:20:19;;;;;;;40.13;22.90;;;;;;;5.67;82.76;101817.41;5027632;28;20060;-48
2023/04/20 06:22:45;;;;;;;42.70;22.67;;;;;;;5.67;82.10;101813.88;5026676;28;20422;-49
2023/04/20 06:25:10;;;;;;;37.60;21.00;;;;;;;5.61;81.78;101821.84;5026973;28;20027;-50
2023/04/20 06:27:36;;;;;;;40.90;25.17;;;;;;;5.56;82.45;101814.00;5028756;28;20029;-51
2023/04/20 06:30:03;;;;;;;40.30;23.73;;;;;;;5.64;83.16;101814.81;5042308;28;20442;-48
2023/04/20 06:32:28;;;;;;;40.42;22.35;;;;;;;5.65;82.82;101811.28;5030304;28;20038;-51
2023/04/20 06:34:53;;;;;;;40.00;23.52;;;;;;;5.77;82.41;101817.31;5028674;28;20040;-50
2023/04/20 06:37:19;;;;;;;40.80;24.08;;;;;;;5.90;82.62;101824.19;5029502;28;20053;-48
2023/04/20 06:39:45;;;;;;;40.38;22.88;;;;;;;6.01;81.74;101830.25;5030172;28;20150;-51
2023/04/20 06:42:10;;;;;;;44.42;22.60;;;;;;;6.11;80.24;101835.41;5046390;28;20037;-49
2023/04/20 06:44:35;;;;;;;36.17;21.73;;;;;;;6.18;81.33;101837.97;5026237;28;20104;-50
2023/04/20 06:47:01;;;;;;;37.45;22.77;;;;;;;6.29;80.51;101840.47;5026499;28;20033;-49
2023/04/20 06:49:26;;;;;;;38.50;22.63;;;;;;;6.38;79.83;101845.63;5027419;28;20032;-50
2023/04/20 06:51:52;;;;;;;44.58;23.20;;;;;;;6.39;79.51;101847.38;5026388;28;20034;-49
2023/04/20 06:54:17;;;;;;;32.35;20.52;;;;;;;6.53;79.59;101843.72;5026239;28;20483;-51
2023/04/20 06:56:43;;;;;;;36.47;20.92;;;;;;;6.54;79.38;101855.97;5030596;28;20351;-49
2023/04/20 06:59:08;;;;;;;38.53;20.90;;;;;;;6.55;78.69;101844.56;5032579;28;20381;-50
2023/04/20 07:01:33;;;;;;;36.97;21.05;;;;;;;6.53;77.48;101841.97;5027845;28;20455;-50
2023/04/20 07:03:59;;;;;;;37.97;20.38;;;;;;;6.39;79.14;101841.25;5025023;28;20574;-50
2023/04/20 07:06:27;;;;;;;34.53;20.02;;;;;;;6.41;78.04;101840.34;5028135;28;20094;-50
2023/04/20 07:08:52;;;;;;;31.02;19.13;;;;;;;6.43;77.78;101843.81;5026521;28;20109;-50
2023/04/20 07:11:17;;;;;;;30.27;18.85;;;;;;;6.38;77.58;101843.00;5028172;28;20116;-50
2023/04/20 07:13:43;;;;;;;35.90;20.65;;;;;;;6.34;77.43;101838.69;5024540;28;20121;-51
2023/04/20 07:16:09;;;;;;;31.23;19.63;;;;;;;6.45;77.19;101840.31;5027095;28;20116;-51
2023/04/20 07:18:35;;;;;;;31.63;20.20;;;;;;;6.43;77.08;101843.81;5030340;28;20029;-49
2023/04/20 07:21:00;;;;;;;33.35;19.98;;;;;;;6.41;77.59;101835.09;5026882;28;20061;-49
2023/04/20 07:23:26;;;;;;;32.67;19.05;;;;;;;6.47;77.13;101843.78;5026301;28;20025;-49
2023/04/20 07:25:51;;;;;;;30.20;18.67;;;;;;;6.50;75.50;101834.13;5025263;28;20105;-49
2023/04/20 07:28:16;;;;;;;33.22;19.88;;;;;;;6.58;76.21;101839.28;5025306;28;20025;-50
2023/04/20 07:30:42;;;;;;;32.95;20.08;;;;;;;6.61;75.80;101847.13;5027649;28;20462;-49
2023/04/20 07:33:08;;;;;;;32.95;20.15;;;;;;;6.62;75.39;101843.63;5029906;28;20052;-49
2023/04/20 07:35:33;;;;;;;30.80;19.15;;;;;;;6.76;76.10;101841.69;5029842;28;20030;-49
2023/04/20 07:37:59;;;;;;;36.17;20.85;;;;;;;6.96;75.85;101858.97;5025735;28;20050;-49
2023/04/20 07:40:24;;;;;;;31.90;19.40;;;;;;;7.12;74.52;101854.38;5024443;28;20088;-49
2023/04/20 07:42:50;;;;;;;35.67;19.70;;;;;;;7.14;74.12;101857.84;5027462;28;20373;-49
2023/04/20 07:45:15;;;;;;;34.67;21.08;;;;;;;7.26;74.08;101862.09;5025541;28;20052;-49
2023/04/20 07:47:43;;;;;;;37.15;21.92;;;;;;;7.40;73.69;101860.09;5022168;28;20052;-50
2023/04/20 07:50:09;;;;;;;34.65;19.92;;;;;;;7.33;73.20;101858.47;5025224;28;20070;-49
2023/04/20 07:52:35;;;;;;;34.35;20.00;;;;;;;7.29;72.96;101872.53;5027787;28;20357;-50
2023/04/20 07:55:00;;;;;;;33.45;19.77;;;;;;;7.42;71.85;101863.59;5030318;28;20053;-51
2023/04/20 07:57:27;;;;;;;34.00;20.42;;;;;;;7.51;73.59;101871.34;5029565;28;20492;-49
2023/04/20 07:59:52;;;;;;;33.08;18.98;;;;;;;7.61;72.21;101868.59;5028079;28;20523;-49
2023/04/20 08:02:18;;;;;;;33.00;20.45;;;;;;;7.88;72.01;101857.59;5028007;28;20029;-49
2023/04/20 08:04:43;;;;;;;30.45;19.42;;;;;;;7.80;71.49;101870.03;5028063;28;20120;-48
2023/04/20 08:07:09;;;;;;;34.22;21.10;;;;;;;7.97;71.06;101860.97;5027388;28;20033;-49
2023/04/20 08:09:35;;;;;;;34.78;19.58;;;;;;;8.12;71.00;101865.97;5026663;28;20029;-50
2023/04/20 08:12:00;;;;;;;28.05;18.15;;;;;;;8.18;71.23;101879.03;5026741;28;20045;-51
2023/04/20 08:14:26;;;;;;;30.80;19.95;;;;;;;7.99;71.05;101869.72;5023982;28;20022;-49
2023/04/20 08:16:51;;;;;;;37.95;20.45;;;;;;;7.73;71.74;101884.16;5025967;28;20476;-50
2023/04/20 08:19:17;;;;;;;30.30;18.88;;;;;;;7.78;71.83;101879.72;5026851;28;20036;-51
2023/04/20 08:21:42;;;;;;;33.10;19.80;;;;;;;7.82;71.16;101862.97;5021863;28;20056;-50
2023/04/20 08:24:08;;;;;;;31.80;18.95;;;;;;;7.84;70.96;101874.34;5026612;28;20032;-50
2023/04/20 08:26:34;;;;;;;29.30;18.25;;;;;;;7.93;69.87;101864.53;5031723;28;20033;-51
2023/04/20 08:29:00;;;;;;;30.20;18.75;;;;;;;8.21;69.82;101878.13;5024684;28;20034;-51
2023/04/20 08:31:25;;;;;;;30.75;19.23;;;;;;;8.39;69.68;101874.28;5024890;28;20087;-51
2023/04/20 08:33:50;;;;;;;29.88;19.08;;;;;;;8.60;69.11;101868.63;5023865;28;20044;-51
2023/04/20 08:36:17;;;;;;;27.52;18.08;;;;;;;8.46;69.50;101875.94;5026730;28;20045;-51
2023/04/20 08:38:42;;;;;;;35.20;20.90;;;;;;;8.68;68.76;101886.06;5025256;28;20048;-51
2023/04/20 08:41:07;;;;;;;29.38;19.00;;;;;;;8.96;67.82;101874.06;5026014;28;20034;-51
2023/04/20 08:43:33;;;;;;;37.25;18.42;;;;;;;8.84;67.52;101871.66;5028169;28;20063;-51
2023/04/20 08:46:01;;;;;;;28.02;18.00;;;;;;;8.69;67.49;101870.22;5023549;28;20427;-50
2023/04/20 08:48:35;;;;;;;33.47;19.42;;;;;;;8.57;67.76;101876.59;5025830;28;20087;-51
2023/04/20 08:51:02;;;;;;;35.00;18.45;;;;;;;8.77;66.58;101870.06;5020565;28;20021;-51
2023/04/20 08:53:28;;;;;;;26.23;16.58;;;;;;;8.60;68.59;101873.91;5027160;28;20128;-51
2023/04/20 08:55:56;;;;;;;28.40;17.52;;;;;;;8.60;68.42;101876.53;5024452;28;20018;-51
2023/04/20 08:58:24;;;;;;;25.55;15.80;;;;;;;8.90;67.60;101873.31;5023204;28;20025;-53
2023/04/20 09:00:49;;;;;;;27.00;15.90;;;;;;;9.12;67.52;101876.34;5023750;28;20499;-51
2023/04/20 09:03:15;;;;;;;24.90;15.90;;;;;;;9.22;66.31;101877.91;5025745;28;20034;-51
2023/04/20 09:05:40;;;;;;;23.48;13.98;;;;;;;9.23;66.14;101884.91;5023355;28;20026;-52
2023/04/20 09:08:08;;;;;;;24.35;14.38;;;;;;;9.25;66.46;101887.50;5028743;28;20029;-51
2023/04/20 09:10:42;;;;;;;23.00;14.45;;;;;;;9.07;65.37;101878.22;5024400;28;20059;-52
2023/04/20 09:13:08;;;;;;;23.20;14.38;;;;;;;9.06;65.14;101884.41;5022387;28;20068;-51
2023/04/20 09:15:34;;;;;;;24.48;14.55;;;;;;;9.03;66.22;101881.84;5024117;28;20106;-51
2023/04/20 09:18:10;;;;;;;21.17;13.57;;;;;;;9.00;66.63;101878.34;5027018;28;20467;-50
2023/04/20 09:20:35;;;;;;;18.83;12.68;;;;;;;9.02;66.17;101878.31;5022915;28;20042;-50
2023/04/20 09:23:18;;;;;;;19.95;12.98;;;;;;;9.05;66.91;101877.41;5024122;28;20040;-51
2023/04/20 09:25:46;;;;;;;23.05;14.77;;;;;;;9.14;66.55;101877.22;5024539;28;20033;-51
2023/04/20 09:28:12;;;;;;;23.05;13.93;;;;;;;9.11;66.91;101870.22;5026533;28;20033;-51
2023/04/20 09:30:41;;;;;;;19.95;12.65;;;;;;;9.13;66.20;101873.69;5024109;28;20365;-51
2023/04/20 09:33:09;;;;;;;21.17;14.00;;;;;;;8.84;67.60;101876.94;5024073;28;20080;-50
2023/04/20 09:35:35;;;;;;;22.13;14.20;;;;;;;8.93;67.67;101871.47;5023334;28;20458;-49
2023/04/20 09:38:00;;;;;;;21.75;13.75;;;;;;;8.71;68.08;101870.19;5021685;28;20065;-49
2023/04/20 09:40:26;;;;;;;20.45;13.48;;;;;;;8.70;70.47;101873.72;5022606;28;20386;-50
2023/04/20 09:42:58;;;;;;;26.55;15.60;;;;;;;8.61;70.67;101880.91;5024295;28;20025;-51
2023/04/20 09:45:24;;;;;;;23.33;14.60;;;;;;;8.53;71.54;101871.41;5022395;28;20041;-52
2023/04/20 09:47:50;;;;;;;21.90;14.32;;;;;;;8.41;72.38;101878.63;5006774;28;20029;-52
2023/04/20 09:50:15;;;;;;;22.73;13.35;;;;;;;8.35;73.00;101867.31;5030507;28;20029;-51
2023/04/20 09:52:41;;;;;;;23.92;14.25;;;;;;;8.41;72.95;101872.47;5027015;28;20111;-51
2023/04/20 09:55:09;;;;;;;21.33;14.30;;;;;;;8.28;71.93;101864.78;5023891;28;20029;-49
2023/04/20 09:57:35;;;;;;;19.88;13.70;;;;;;;8.31;75.08;101860.38;5028396;28;20492;-49
2023/04/20 10:00:01;;;;;;;26.77;16.00;;;;;;;8.31;73.05;101858.63;5031806;28;20029;-49
2023/04/20 10:02:26;;;;;;;25.58;15.23;;;;;;;8.33;73.68;101853.31;5024151;28;20057;-49
2023/04/20 10:04:52;;;;;;;25.45;15.07;;;;;;;8.22;72.91;101851.75;5020404;28;20493;-51
2023/04/20 10:07:29;;;;;;;27.77;15.77;;;;;;;8.16;73.75;101856.28;5024106;28;20026;-50
2023/04/20 10:10:08;;;;;;;24.90;14.65;;;;;;;8.24;74.39;101860.50;5023370;28;20025;-50
2023/04/20 10:12:49;;;;;;;22.15;14.70;;;;;;;8.20;73.71;101869.34;5026133;28;20037;-49
2023/04/20 10:15:14;;;;;;;28.67;16.27;;;;;;;8.22;74.56;101869.31;5023940;28;20033;-50
2023/04/20 10:17:40;;;;;;;26.40;15.93;;;;;;;8.30;73.84;101870.03;5026381;28;20036;-49
2023/04/20 10:20:24;;;;;;;26.75;15.52;;;;;;;8.43;73.98;101876.88;5030062;28;20056;-51
2023/04/20 10:22:54;;;;;;;25.42;15.88;;;;;;;8.52;73.98;101870.56;5024431;28;20038;-51
2023/04/20 10:25:23;;;;;;;22.77;14.10;;;;;;;8.54;72.53;101873.16;5026485;28;20034;-51
2023/04/20 10:28:05;;;;;;;23.50;15.75;;;;;;;8.75;74.81;101872.72;5023630;28;20038;-49
2023/04/20 10:30:30;;;;;;;;;;;;;;;8.87;72.99;101874.25;5021287;28;20025;-49
2023/04/20 10:33:03;;;;;;;25.48;15.07;;;;;;;8.85;72.66;101877.81;5026792;28;20003;-49
2023/04/20 10:35:28;;;;;;;24.08;15.18;;;;;;;9.04;72.47;101873.00;5021739;28;20139;-51
2023/04/20 10:37:54;;;;;;;24.42;15.73;;;;;;;9.17;71.83;101869.19;5022357;28;20124;-50
2023/04/20 10:40:26;;;;;;;22.35;14.90;;;;;;;9.25;71.43;101856.75;5025198;28;20037;-51
2023/04/20 10:42:51;;;;;;;25.27;15.75;;;;;;;9.42;70.94;101858.13;5021948;28;20025;-50
2023/04/20 10:45:17;;;;;;;21.88;14.60;;;;;;;9.36;69.09;101857.34;5025295;28;20063;-50
2023/04/20 10:47:44;;;;;;;23.38;15.20;;;;;;;9.43;70.14;101854.56;5022542;28;20029;-50
2023/04/20 10:50:14;;;;;;;25.02;14.80;;;;;;;9.14;69.92;101848.19;5021121;28;20144;-50
2023/04/20 10:52:41;;;;;;;21.60;14.38;;;;;;;9.36;68.72;101848.56;5022951;28;20439;-50
2023/04/20 10:55:20;;;;;;;23.15;15.77;;;;;;;9.50;68.71;101846.47;5022790;28;20021;-50
2023/04/20 10:57:47;;;;;;;23.58;13.98;;;;;;;9.49;69.10;101854.44;5023428;28;20505;-50
2023/04/20 11:00:20;;;;;;;21.83;14.15;;;;;;;9.47;69.63;101853.59;5024438;28;20116;-50
2023/04/20 11:02:56;;;;;;;20.10;13.63;;;;;;;9.40;68.93;101849.34;5024485;28;20088;-51
2023/04/20 11:05:23;;;;;;;22.55;16.08;;;;;;;9.28;68.87;101840.81;5029951;28;20429;-52
2023/04/20 11:08:02;;;;;;;21.63;14.40;;;;;;;9.52;68.20;101849.09;5025742;28;20064;-50
2023/04/20 11:10:41;;;;;;;24.40;14.48;;;;;;;9.88;67.18;101835.88;5026048;28;20442;-51
2023/04/20 11:13:18;;;;;;;21.15;13.90;;;;;;;9.70;67.83;101842.50;5030107;28;20061;-51